Flight Track Log - Related Links

Times and Time Zones

All times are in EDT time to prevent confusion due to time zone crossing. See the N1108P flight status page for this flight to view local times or setup timezone preferences in your user account.

Time Position Orientation Groundspeed Altitude Reporting Facility
EDT Latitude Longitude Course Direction KTS MPH feet Rate Location/Type
Wed 01:36:26 PM 34.2167 -118.3833 320° Northwest 100 115 2,800  Level Southern California TRACON
Wed 01:37:26 PM 34.2333 -118.4167 301° West 105 121 3,500 700 Climbing Southern California TRACON
Wed 01:38:26 PM 34.2333 -118.4500 270° West 105 121 4,200 500 Climbing Southern California TRACON
Wed 01:39:26 PM 34.2500 -118.4833 301° West 126 145 4,500 150 Climbing Southern California TRACON
Wed 01:40:00 PM 34.2276 -118.5296 281° West  Level Estimated
Wed 01:40:26 PM 34.2500 -118.5333 270° West 139 160 4,500  Level Southern California TRACON
Wed 01:41:26 PM 34.2500 -118.5833 270° West 137 158 4,500  Level Southern California TRACON
Wed 01:42:20 PM 34.2667 -118.6167 301° West 140 161 4,500 64 Level Southern California TRACON
Wed 01:43:00 PM 34.2647 -118.6511 266° West 143 165 4,600 98 Climbing Los Angeles Center
Wed 01:43:21 PM 34.2719 -118.6636 305° West 140 161 4,600  Level Los Angeles Center
Wed 01:43:43 PM 34.2697 -118.6831 262° West 142 163 4,600  Level Los Angeles Center
Wed 01:44:24 PM 34.2808 -118.7208 290° West 143 165 4,600 -100 Level Los Angeles Center
Wed 01:44:43 PM 34.2783 -118.7300 252° West 144 166 4,500 -97 Descending Los Angeles Center
Wed 01:45:26 PM 34.2883 -118.7681 288° West 144 166 4,500  Level Los Angeles Center
Wed 01:45:44 PM 34.2872 -118.7792 263° West 145 167 4,500  Level Los Angeles Center
Wed 01:46:28 PM 34.2967 -118.8153 288° West 145 167 4,500  Level Los Angeles Center
Wed 01:46:45 PM 34.2961 -118.8283 267° West 146 168 4,500  Level Los Angeles Center
Wed 01:47:30 PM 34.3028 -118.8650 282° West 148 170 4,500  Level Los Angeles Center
Wed 01:47:45 PM 34.3031 -118.8781 271° West 146 168 4,500  Level Los Angeles Center
Wed 01:48:32 PM 34.3086 -118.9103 282° West 138 159 4,500  Level Los Angeles Center
Wed 01:48:52 PM 34.3058 -118.9294 260° West 143 165 4,500  Level Los Angeles Center
Wed 01:49:34 PM 34.3100 -118.9594 280° West 143 165 4,500  Level Los Angeles Center
Wed 01:49:52 PM 34.3100 -118.9775 270° West 145 167 4,500  Level Los Angeles Center
Wed 01:50:36 PM 34.3103 -119.0175 270° West 144 166 4,500  Level Los Angeles Center
Wed 01:50:53 PM 34.3089 -119.0300 262° West 148 170 4,500  Level Los Angeles Center
Wed 01:51:38 PM 34.3075 -119.0656 267° West 143 165 4,500  Level Los Angeles Center
Wed 01:51:54 PM 34.3125 -119.0756 301° West 140 161 4,500 -97 Level Los Angeles Center
Wed 01:52:40 PM 34.3172 -119.1133 279° West 146 168 4,400 -56 Descending Los Angeles Center
Wed 01:53:42 PM 34.3250 -119.1597 281° West 144 166 4,400  Level Los Angeles Center
Wed 01:54:45 PM 34.3303 -119.2072 278° West 143 165 4,400 75 Level Los Angeles Center
Wed 01:55:02 PM 34.3328 -119.2253 280° West 145 167 4,500  Climbing Los Angeles Center
Wed 01:55:47 PM 34.3342 -119.2639 273° West 142 163 4,400 -66 Descending Los Angeles Center
Wed 01:56:33 PM 34.3353 -119.3019 272° West 143 165 4,400 -97 Level Los Angeles Center
Wed 01:56:49 PM 34.3367 -119.3128 279° West 142 163 4,300 -231 Descending Los Angeles Center
Wed 01:57:51 PM 34.3383 -119.3636 272° West 146 168 4,100 -194 Descending Los Angeles Center
Wed 01:58:53 PM 34.3506 -119.4097 288° West 147 169 3,900 -194 Descending Los Angeles Center
Wed 01:59:55 PM 34.3636 -119.4558 289° West 147 169 3,700 -290 Descending Los Angeles Center
Wed 02:00:57 PM 34.3794 -119.5092 290° West 144 166 3,300 -300 Descending Los Angeles Center
Wed 02:01:55 PM 34.3922 -119.5544 289° West 146 168 3,100 -268 Descending Los Angeles Center
Wed 02:02:49 PM 34.4042 -119.5975 289° West 148 170 2,800 -291 Descending Los Angeles Center
Wed 02:03:38 PM 34.4147 -119.6358 288° West 149 171 2,600 -240 Descending Los Angeles Center
Wed 02:04:04 PM 34.4192 -119.6536 287° West 148 170 2,500 -333 Descending Los Angeles Center
Wed 02:04:50 PM 34.4319 -119.6928 292° West 151 174 2,200 -336 Descending Los Angeles Center
Wed 02:05:51 PM 34.4411 -119.7444 282° West 151 174 1,900 -328 Descending Los Angeles Center
Wed 02:06:58 PM 34.4500 -119.7939 282° West 142 163 1,500 -471 Descending Los Angeles Center
Wed 02:08:11 PM 34.4483 -119.8439 268° West 101 116 800 -575 Descending Los Angeles Center
Wed 02:10:00 PM 34.4262 -119.8415 165° South  Level Estimated
Wed 02:17:00 PM 34.4262 -119.8415 281° West  Level Estimated

Login

Don't have an account? Register now (free) for customized features, flight alerts, and more!